createdAt,value
2022-08-12T00:00:07.514Z,57.50
2022-08-12T00:02:54.285Z,57.62
2022-08-12T00:05:57.107Z,58.13
2022-08-12T00:08:50.599Z,58.70
2022-08-12T00:11:35.900Z,59.11
2022-08-12T00:14:21.068Z,59.61
2022-08-12T00:17:07.419Z,59.84
2022-08-12T00:19:52.781Z,59.94
2022-08-12T00:22:39.664Z,59.90
2022-08-12T00:26:05.661Z,59.81
2022-08-12T00:28:32.752Z,59.77
2022-08-12T00:31:18.364Z,59.61
2022-08-12T00:34:03.568Z,59.86
2022-08-12T00:36:50.817Z,59.95
2022-08-12T00:39:37.006Z,60.16
2022-08-12T00:42:13.569Z,60.00
2022-08-12T00:44:43.319Z,60.04
2022-08-12T00:47:25.183Z,60.46
2022-08-12T00:49:55.312Z,60.81
2022-08-12T00:52:23.144Z,61.01
2022-08-12T00:54:57.134Z,61.23
2022-08-12T00:57:28.964Z,61.55
2022-08-12T01:00:01.798Z,61.68
2022-08-12T01:02:34.261Z,61.47
2022-08-12T01:05:23.655Z,61.34
2022-08-12T01:08:09.516Z,61.30
2022-08-12T01:10:57.850Z,61.22
2022-08-12T01:13:25.988Z,61.49
2022-08-12T01:15:55.394Z,61.49
2022-08-12T01:18:24.674Z,61.38
2022-08-12T01:21:03.737Z,61.68
2022-08-12T01:23:43.409Z,61.49
2022-08-12T01:26:16.616Z,61.64
2022-08-12T01:28:46.579Z,61.65
2022-08-12T01:31:16.481Z,61.58
2022-08-12T01:33:58.151Z,61.49
2022-08-12T01:36:27.872Z,61.34
2022-08-12T01:39:01.958Z,61.37
2022-08-12T01:41:33.442Z,61.22
2022-08-12T01:44:01.706Z,61.10
2022-08-12T01:46:38.501Z,61.12
2022-08-12T01:49:14.575Z,60.96
2022-08-12T01:52:20.636Z,60.93
2022-08-12T01:54:44.524Z,60.85
2022-08-12T01:57:59.733Z,61.03
2022-08-12T02:00:13.809Z,60.82
2022-08-12T02:02:47.817Z,60.85
2022-08-12T02:05:35.562Z,61.02
2022-08-12T02:08:52.472Z,60.54
2022-08-12T02:11:31.784Z,60.75
2022-08-12T02:14:05.500Z,60.73
2022-08-12T02:16:58.048Z,61.14
2022-08-12T02:20:01.783Z,61.27
2022-08-12T02:22:34.765Z,61.22
2022-08-12T02:25:06.912Z,61.23
2022-08-12T02:27:55.246Z,61.08
2022-08-12T02:30:25.534Z,60.93
2022-08-12T02:33:04.578Z,61.24
2022-08-12T02:35:34.030Z,61.03
2022-08-12T02:38:04.328Z,61.27
2022-08-12T02:40:31.297Z,61.29
2022-08-12T02:43:30.179Z,61.38
2022-08-12T02:46:00.348Z,61.33
2022-08-12T02:48:39.673Z,61.22
2022-08-12T02:51:09.879Z,61.40
2022-08-12T02:53:37.885Z,61.49
2022-08-12T02:56:06.497Z,61.44
2022-08-12T02:58:35.757Z,61.62
2022-08-12T03:01:11.738Z,61.28
2022-08-12T03:03:40.374Z,61.19
2022-08-12T03:06:12.640Z,61.24
2022-08-12T03:08:42.271Z,61.24
2022-08-12T03:11:41.637Z,61.28
2022-08-12T03:14:14.372Z,61.08
2022-08-12T03:16:42.107Z,61.15
2022-08-12T03:19:08.945Z,61.21
2022-08-12T03:21:52.947Z,60.93
2022-08-12T03:24:27.396Z,60.65
2022-08-12T03:26:55.256Z,60.91
2022-08-12T03:29:32.745Z,60.84
2022-08-12T03:32:35.762Z,60.66
2022-08-12T03:35:07.790Z,60.08
2022-08-12T03:37:37.279Z,59.91
2022-08-12T03:40:04.975Z,59.67
2022-08-12T03:42:41.154Z,59.71
2022-08-12T03:45:51.997Z,59.16
2022-08-12T03:48:38.538Z,59.04
2022-08-12T03:51:24.271Z,58.90
2022-08-12T03:54:11.591Z,58.71
2022-08-12T03:56:58.203Z,58.25
2022-08-12T03:59:44.071Z,58.00
2022-08-12T04:02:15.572Z,57.57
2022-08-12T04:04:45.442Z,57.55
2022-08-12T04:07:14.034Z,57.04
2022-08-12T04:09:44.641Z,56.60
2022-08-12T04:12:32.906Z,56.28
2022-08-12T04:15:00.995Z,56.21
2022-08-12T04:17:28.604Z,55.44
2022-08-12T04:19:57.759Z,54.57
2022-08-12T04:22:29.716Z,54.95
2022-08-12T04:25:00.960Z,55.00
2022-08-12T04:27:30.204Z,55.09
2022-08-12T04:30:17.722Z,55.29
2022-08-12T04:32:45.898Z,55.23
2022-08-12T04:35:12.802Z,55.29
2022-08-12T04:37:58.061Z,55.19
2022-08-12T04:40:33.023Z,54.92
2022-08-12T04:43:03.516Z,54.89
2022-08-12T04:45:37.574Z,54.01
2022-08-12T04:48:05.138Z,53.53
2022-08-12T04:50:35.203Z,53.43
2022-08-12T04:53:08.706Z,53.31
2022-08-12T04:55:38.491Z,52.27
2022-08-12T04:58:06.567Z,52.35
2022-08-12T05:00:33.593Z,52.13
2022-08-12T05:03:00.553Z,51.70
2022-08-12T05:05:30.394Z,50.95
2022-08-12T05:08:00.603Z,50.86
2022-08-12T05:10:33.776Z,50.52
2022-08-12T05:13:07.159Z,49.54
2022-08-12T05:15:36.026Z,49.22
2022-08-12T05:18:03.607Z,48.77
2022-08-12T05:20:48.382Z,47.73
2022-08-12T05:23:17.520Z,47.60
2022-08-12T05:25:57.116Z,47.77
2022-08-12T05:28:26.973Z,47.34
2022-08-12T05:30:58.440Z,47.62
2022-08-12T05:33:33.105Z,47.59
2022-08-12T05:35:59.792Z,46.64
2022-08-12T05:38:44.910Z,46.58
2022-08-12T05:41:20.306Z,46.01
2022-08-12T05:43:58.703Z,45.88
2022-08-12T05:46:31.722Z,43.14
2022-08-12T05:49:00.846Z,42.60
2022-08-12T05:51:40.337Z,42.44
2022-08-12T05:54:08.939Z,43.02
2022-08-12T05:56:36.234Z,40.67
2022-08-12T05:59:08.666Z,41.64
2022-08-12T06:02:11.828Z,41.66
2022-08-12T06:04:22.950Z,41.84
2022-08-12T06:06:53.132Z,41.05
2022-08-12T06:09:19.836Z,41.56
2022-08-12T06:12:04.950Z,41.77
2022-08-12T06:14:36.959Z,41.32
2022-08-12T06:17:05.311Z,41.58
2022-08-12T06:20:26.210Z,41.16
2022-08-12T06:22:19.171Z,41.33
2022-08-12T06:24:46.491Z,41.24
2022-08-12T06:27:17.677Z,41.59
2022-08-12T06:30:09.990Z,41.90
2022-08-12T06:32:31.242Z,41.84
2022-08-12T06:35:25.658Z,41.85
2022-08-12T06:37:50.353Z,41.67
2022-08-12T06:40:41.846Z,41.60
2022-08-12T06:43:12.099Z,41.75
2022-08-12T06:45:46.725Z,41.59
2022-08-12T06:48:14.469Z,42.15
2022-08-12T06:50:44.813Z,41.87
2022-08-12T06:53:11.742Z,42.49
2022-08-12T06:55:57.865Z,42.45
2022-08-12T06:58:26.457Z,42.24
2022-08-12T07:00:54.601Z,42.83
2022-08-12T07:03:25.673Z,42.39
2022-08-12T07:05:52.491Z,42.23
2022-08-12T07:08:19.122Z,42.67
2022-08-12T07:10:59.520Z,42.63
2022-08-12T07:13:28.495Z,42.48
2022-08-12T07:15:57.030Z,42.73
2022-08-12T07:18:28.490Z,42.84
2022-08-12T07:20:55.160Z,42.96
2022-08-12T07:23:24.405Z,43.23
2022-08-12T07:25:53.099Z,43.39
2022-08-12T07:28:29.288Z,43.59
2022-08-12T07:30:57.567Z,43.88
2022-08-12T07:33:29.440Z,44.83
2022-08-12T07:35:58.816Z,44.77
2022-08-12T07:38:33.446Z,44.61
2022-08-12T07:41:03.327Z,44.86
2022-08-12T07:43:31.830Z,45.25
2022-08-12T07:46:00.447Z,45.53
2022-08-12T07:48:28.098Z,45.16
2022-08-12T07:50:55.105Z,45.15
2022-08-12T07:53:21.865Z,45.02
2022-08-12T07:55:48.540Z,44.63
2022-08-12T07:58:15.194Z,45.17
2022-08-12T08:00:42.445Z,44.97
2022-08-12T08:03:09.154Z,45.58
2022-08-12T08:05:49.538Z,45.38
2022-08-12T08:08:22.707Z,44.85
2022-08-12T08:10:51.565Z,43.90
2022-08-12T08:13:19.054Z,43.75
2022-08-12T08:16:02.366Z,43.51
2022-08-12T08:18:31.294Z,42.85
2022-08-12T08:20:57.919Z,42.96
2022-08-12T08:23:56.329Z,42.53
2022-08-12T08:26:26.937Z,41.83
2022-08-12T08:28:53.901Z,42.33
2022-08-12T08:31:21.489Z,42.22
2022-08-12T08:34:04.761Z,42.34
2022-08-12T08:36:34.861Z,40.92
2022-08-12T08:39:04.360Z,40.07
2022-08-12T08:42:16.578Z,39.97
2022-08-12T08:44:41.247Z,39.71
2022-08-12T08:47:09.872Z,39.55
2022-08-12T08:49:37.788Z,39.27
2022-08-12T08:52:06.592Z,39.30
2022-08-12T08:54:37.968Z,38.87
2022-08-12T08:57:07.941Z,38.43
2022-08-12T08:59:35.780Z,39.05
2022-08-12T09:02:02.638Z,39.30
2022-08-12T09:05:11.944Z,39.12
2022-08-12T09:07:51.728Z,38.78
2022-08-12T09:10:09.219Z,39.04
2022-08-12T09:13:23.315Z,39.29
2022-08-12T09:15:56.025Z,39.07
2022-08-12T09:18:26.693Z,38.82
2022-08-12T09:21:02.150Z,38.87
2022-08-12T09:23:57.297Z,39.24
2022-08-12T09:26:19.062Z,39.54
2022-08-12T09:32:03.759Z,39.02
2022-08-12T09:34:29.178Z,39.20
2022-08-12T09:36:58.230Z,39.11
2022-08-12T09:40:04.394Z,39.07
2022-08-12T09:42:42.923Z,39.03
2022-08-12T09:45:23.415Z,38.67
2022-08-12T09:47:59.142Z,38.94
2022-08-12T09:50:27.437Z,38.74
2022-08-12T09:53:14.992Z,38.73
2022-08-12T09:56:40.208Z,39.51
2022-08-12T09:58:57.729Z,38.85
2022-08-12T10:01:24.440Z,38.61
2022-08-12T10:04:03.190Z,39.36
2022-08-12T10:06:36.184Z,39.04
2022-08-12T10:09:08.406Z,38.80
2022-08-12T10:12:10.562Z,39.14
2022-08-12T10:14:39.875Z,39.09
2022-08-12T10:17:23.457Z,38.60
2022-08-12T10:19:52.594Z,38.95
2022-08-12T10:22:39.692Z,38.80
2022-08-12T10:26:34.055Z,39.53
2022-08-12T10:28:34.959Z,39.05
2022-08-12T10:31:04.848Z,39.29
2022-08-12T10:33:33.390Z,38.95
2022-08-12T10:36:02.062Z,39.02
2022-08-12T10:38:39.051Z,38.92
2022-08-12T10:41:58.290Z,38.49
2022-08-12T10:44:17.516Z,38.24
2022-08-12T10:46:49.295Z,38.67
2022-08-12T10:50:05.050Z,38.56
2022-08-12T10:52:34.856Z,39.04
2022-08-12T10:54:55.921Z,38.54
2022-08-12T10:58:14.745Z,38.16
2022-08-12T11:00:33.739Z,38.16
2022-08-12T11:04:23.903Z,38.22
2022-08-12T11:07:06.727Z,38.72
2022-08-12T11:08:43.379Z,38.12
2022-08-12T11:11:17.618Z,38.44
2022-08-12T11:13:48.872Z,39.17
2022-08-12T11:16:23.305Z,38.56
2022-08-12T11:18:54.886Z,38.26
2022-08-12T11:21:22.655Z,38.58
2022-08-12T11:24:30.057Z,37.89
2022-08-12T11:30:02.000Z,37.52
2022-08-12T11:32:16.848Z,36.97
2022-08-12T11:34:51.968Z,36.02
2022-08-12T11:37:24.897Z,35.94
2022-08-12T11:42:39.862Z,35.59
2022-08-12T11:45:16.614Z,35.68
2022-08-12T11:47:44.686Z,35.78
2022-08-12T11:50:19.120Z,35.55
2022-08-12T11:53:02.371Z,35.31
2022-08-12T11:55:29.744Z,35.06
2022-08-12T11:59:14.614Z,35.41
2022-08-12T12:03:44.257Z,35.07
2022-08-12T12:06:16.925Z,35.45
2022-08-12T12:08:50.380Z,34.97
2022-08-12T12:11:18.476Z,34.47
2022-08-12T12:14:08.101Z,35.38
2022-08-12T12:16:33.531Z,34.74
2022-08-12T12:19:05.534Z,34.99
2022-08-12T12:21:46.939Z,34.87
2022-08-12T12:24:21.699Z,35.19
2022-08-12T12:27:00.706Z,33.56
2022-08-12T12:30:19.595Z,33.72
2022-08-12T12:32:18.647Z,35.40
2022-08-12T12:35:14.570Z,35.90
2022-08-12T12:38:04.251Z,35.77
2022-08-12T12:40:29.768Z,38.18
2022-08-12T12:43:00.453Z,40.24
2022-08-12T12:45:33.567Z,40.07
2022-08-12T12:48:04.919Z,41.44
2022-08-12T12:50:42.810Z,41.20
2022-08-12T12:54:08.229Z,40.43
2022-08-12T12:56:05.706Z,40.63
2022-08-12T12:58:34.660Z,40.88
2022-08-12T13:01:04.825Z,40.90
2022-08-12T13:03:54.097Z,40.79
2022-08-12T13:06:31.669Z,40.48
2022-08-12T13:09:03.807Z,41.48
2022-08-12T13:11:41.651Z,41.48
2022-08-12T13:14:27.871Z,41.31
2022-08-12T13:16:55.347Z,39.52
2022-08-12T13:19:36.039Z,39.20
2022-08-12T13:22:20.734Z,39.76
2022-08-12T13:24:54.943Z,39.54
2022-08-12T13:27:46.224Z,39.70
2022-08-12T13:30:20.419Z,39.45
2022-08-12T13:32:58.406Z,39.27
2022-08-12T13:35:33.217Z,39.83
2022-08-12T13:38:02.659Z,39.05
2022-08-12T13:40:32.421Z,40.45
2022-08-12T13:43:01.713Z,40.04
2022-08-12T13:45:30.968Z,39.88
2022-08-12T13:48:03.591Z,40.13
2022-08-12T13:50:41.269Z,39.04
2022-08-12T13:53:24.873Z,39.79
2022-08-12T13:55:59.456Z,39.75
2022-08-12T13:58:30.025Z,38.77
2022-08-12T14:00:58.068Z,39.48
2022-08-12T14:03:28.706Z,38.65
2022-08-12T14:06:15.181Z,38.89
2022-08-12T14:08:43.181Z,38.60
2022-08-12T14:11:12.433Z,37.53
2022-08-12T14:14:05.147Z,37.55
2022-08-12T14:16:38.228Z,38.53
2022-08-12T14:19:18.467Z,37.93
2022-08-12T14:21:59.672Z,38.08
2022-08-12T14:24:30.804Z,38.72
2022-08-12T14:27:01.906Z,38.22
2022-08-12T14:30:04.893Z,38.66
2022-08-12T14:32:17.679Z,38.69
2022-08-12T14:34:47.219Z,38.18
2022-08-12T14:37:57.113Z,38.53
2022-08-12T14:40:05.840Z,39.05
2022-08-12T14:42:34.654Z,39.13
2022-08-12T14:45:02.212Z,39.15
2022-08-12T14:47:34.957Z,39.37
2022-08-12T14:50:37.107Z,38.74
2022-08-12T14:58:31.766Z,38.10
2022-08-12T15:01:21.528Z,38.10
2022-08-12T15:04:01.582Z,37.57
2022-08-12T15:06:39.862Z,38.11
2022-08-12T15:09:29.235Z,38.10
2022-08-12T15:12:06.172Z,37.84
2022-08-12T15:14:42.892Z,37.15
2022-08-12T15:17:12.472Z,38.45
2022-08-12T15:20:31.033Z,38.50
2022-08-12T15:22:53.813Z,37.89
2022-08-12T15:25:21.077Z,38.24
2022-08-12T15:28:10.985Z,37.01
2022-08-12T15:30:43.788Z,37.77
2022-08-12T15:33:15.659Z,37.61
2022-08-12T15:35:51.915Z,38.10
2022-08-12T15:38:22.091Z,37.67
2022-08-12T15:40:54.801Z,38.08
2022-08-12T15:44:16.224Z,37.64
2022-08-12T15:46:15.086Z,36.49
2022-08-12T15:48:46.978Z,36.98
2022-08-12T15:51:58.982Z,36.93
2022-08-12T15:54:33.169Z,37.79
2022-08-12T15:57:07.579Z,37.66
2022-08-12T16:00:03.842Z,37.59
2022-08-12T16:02:52.482Z,37.79
2022-08-12T16:06:11.564Z,38.08
2022-08-12T16:08:17.208Z,37.85
2022-08-12T16:10:47.301Z,37.39
2022-08-12T16:13:32.315Z,37.41
2022-08-12T16:16:24.121Z,37.45
2022-08-12T16:20:01.740Z,38.01
2022-08-12T16:22:11.454Z,36.88
2022-08-12T16:24:43.670Z,37.54
2022-08-12T16:27:16.283Z,37.31
2022-08-12T16:29:52.694Z,37.10
2022-08-12T16:32:24.188Z,38.28
2022-08-12T16:34:56.013Z,37.13
2022-08-12T16:38:04.701Z,36.77
2022-08-12T16:40:13.027Z,37.08
2022-08-12T16:42:42.253Z,36.62
2022-08-12T16:46:07.804Z,36.32
2022-08-12T16:48:34.134Z,36.99
2022-08-12T16:51:09.207Z,37.60
2022-08-12T16:53:44.314Z,37.73
2022-08-12T16:56:14.979Z,37.15
2022-08-12T16:58:43.290Z,37.52
2022-08-12T17:01:14.460Z,37.31
2022-08-12T17:04:09.022Z,37.31
2022-08-12T17:06:41.510Z,36.46
2022-08-12T17:09:17.974Z,36.46
2022-08-12T17:11:48.954Z,35.43
2022-08-12T17:14:16.973Z,35.44
2022-08-12T17:16:45.610Z,36.10
2022-08-12T17:19:13.950Z,35.49
2022-08-12T17:22:01.543Z,36.06
2022-08-12T17:24:32.481Z,36.96
2022-08-12T17:27:14.451Z,36.65
2022-08-12T17:30:01.079Z,36.51
2022-08-12T17:32:33.611Z,36.95
2022-08-12T17:35:20.106Z,36.38
2022-08-12T17:37:48.545Z,36.11
2022-08-12T17:40:34.542Z,35.20
2022-08-12T17:43:55.786Z,35.86
2022-08-12T17:45:59.002Z,36.28
2022-08-12T17:48:35.216Z,36.04
2022-08-12T17:51:12.501Z,35.51
2022-08-12T17:54:11.004Z,36.28
2022-08-12T17:56:32.651Z,36.80
2022-08-12T17:59:01.133Z,37.52
2022-08-12T18:01:29.351Z,37.80
2022-08-12T18:04:21.470Z,38.37
2022-08-12T18:06:53.995Z,38.72
2022-08-12T18:09:24.556Z,39.03
2022-08-12T18:12:14.594Z,39.87
2022-08-12T18:14:56.421Z,39.93
2022-08-12T18:17:32.287Z,40.62
2022-08-12T18:20:27.152Z,40.26
2022-08-12T18:23:15.488Z,40.86
2022-08-12T18:26:15.204Z,41.59
2022-08-12T18:28:50.686Z,41.41
2022-08-12T18:31:44.777Z,41.69
2022-08-12T18:34:24.940Z,41.34
2022-08-12T18:37:24.285Z,41.05
2022-08-12T18:40:08.632Z,41.56
2022-08-12T18:42:36.249Z,41.48
2022-08-12T18:45:03.836Z,40.84
2022-08-12T18:47:50.109Z,41.95
2022-08-12T18:50:26.753Z,41.69
2022-08-12T18:54:05.169Z,41.42
2022-08-12T18:56:04.484Z,41.28
2022-08-12T18:58:36.604Z,41.53
2022-08-12T19:01:08.714Z,41.50
2022-08-12T19:04:01.747Z,41.71
2022-08-12T19:06:38.134Z,41.65
2022-08-12T19:09:11.436Z,42.16
2022-08-12T19:11:57.535Z,42.58
2022-08-12T19:14:28.112Z,42.76
2022-08-12T19:16:57.758Z,44.43
2022-08-12T19:19:24.794Z,46.12
2022-08-12T19:21:56.480Z,45.70
2022-08-12T19:24:42.317Z,46.48
2022-08-12T19:27:11.043Z,46.04
2022-08-12T19:29:44.118Z,46.23
2022-08-12T19:32:13.235Z,45.30
2022-08-12T19:36:06.471Z,44.82
2022-08-12T19:38:04.119Z,44.95
2022-08-12T19:40:32.327Z,44.67
2022-08-12T19:43:19.590Z,45.05
2022-08-12T19:45:56.783Z,44.45
2022-08-12T19:48:30.709Z,44.20
2022-08-12T19:51:09.335Z,44.10
2022-08-12T19:53:57.501Z,44.53
2022-08-12T19:56:28.056Z,44.20
2022-08-12T19:59:18.763Z,44.59
2022-08-12T20:02:03.281Z,44.23
2022-08-12T20:04:35.520Z,44.48
2022-08-12T20:07:06.574Z,44.17
2022-08-12T20:09:39.694Z,44.52
2022-08-12T20:12:12.226Z,44.81
2022-08-12T20:14:52.442Z,44.39
2022-08-12T20:17:23.636Z,44.55
2022-08-12T20:20:17.747Z,44.71
2022-08-12T20:22:43.003Z,44.90
2022-08-12T20:25:12.351Z,44.67
2022-08-12T20:28:04.885Z,44.69
2022-08-12T20:30:53.439Z,44.57
2022-08-12T20:33:50.279Z,44.68
2022-08-12T20:36:42.854Z,45.37
2022-08-12T20:39:34.104Z,46.32
2022-08-12T20:42:07.498Z,47.90
2022-08-12T20:44:40.787Z,48.24
2022-08-12T20:47:19.538Z,48.74
2022-08-12T20:49:54.923Z,47.88
2022-08-12T20:52:30.238Z,47.17
2022-08-12T20:55:00.361Z,47.41
2022-08-12T20:57:37.648Z,47.12
2022-08-12T21:00:15.328Z,47.76
2022-08-12T21:02:50.008Z,47.27
2022-08-12T21:06:09.315Z,47.31
2022-08-12T21:08:27.302Z,47.54
2022-08-12T21:10:58.909Z,47.11
2022-08-12T21:13:26.864Z,47.03
2022-08-12T21:15:58.978Z,46.99
2022-08-12T21:18:28.926Z,47.65
2022-08-12T21:20:58.850Z,47.65
2022-08-12T21:23:30.921Z,48.00
2022-08-12T21:26:16.252Z,47.68
2022-08-12T21:28:58.760Z,47.88
2022-08-12T21:32:39.570Z,47.53
2022-08-12T21:34:17.946Z,47.39
2022-08-12T21:36:49.453Z,47.74
2022-08-12T21:39:21.390Z,47.96
2022-08-12T21:41:56.185Z,48.30
2022-08-12T21:45:45.941Z,48.11
2022-08-12T21:47:21.179Z,48.24
2022-08-12T21:50:03.877Z,47.90
2022-08-12T21:52:41.884Z,47.58
2022-08-12T21:55:18.682Z,47.53
2022-08-12T21:57:54.701Z,47.72
2022-08-12T22:00:34.997Z,47.82
2022-08-12T22:04:03.143Z,47.86
2022-08-12T22:06:26.245Z,47.96
2022-08-12T22:09:02.722Z,48.07
2022-08-12T22:11:41.812Z,48.34
2022-08-12T22:14:18.000Z,48.37
2022-08-12T22:16:50.917Z,48.21
2022-08-12T22:19:19.505Z,48.18
2022-08-12T22:21:52.315Z,48.59
2022-08-12T22:24:26.510Z,48.58
2022-08-12T22:27:28.394Z,47.92
2022-08-12T22:30:16.528Z,48.07
2022-08-12T22:32:51.595Z,47.79
2022-08-12T22:35:47.634Z,47.82
2022-08-12T22:38:25.073Z,47.59
2022-08-12T22:41:03.958Z,47.72
2022-08-12T22:43:59.853Z,48.19
2022-08-12T22:46:53.981Z,48.32
2022-08-12T22:49:49.144Z,48.78
2022-08-12T22:52:23.051Z,48.83
2022-08-12T22:55:03.733Z,48.74
2022-08-12T22:57:49.357Z,48.97
2022-08-12T23:00:24.448Z,49.28
2022-08-12T23:02:58.448Z,48.99
2022-08-12T23:05:57.504Z,49.27
2022-08-12T23:08:17.756Z,50.11
2022-08-12T23:10:48.352Z,50.63
2022-08-12T23:13:43.407Z,50.71
2022-08-12T23:16:18.239Z,51.08
2022-08-12T23:19:01.419Z,51.73
2022-08-12T23:22:03.666Z,51.53
2022-08-12T23:24:26.048Z,51.94
2022-08-12T23:27:11.677Z,52.17
2022-08-12T23:29:43.968Z,52.04
2022-08-12T23:32:36.424Z,52.17
2022-08-12T23:35:18.875Z,52.46
2022-08-12T23:37:54.544Z,52.28
2022-08-12T23:40:24.528Z,52.57
2022-08-12T23:42:54.091Z,52.61
2022-08-12T23:45:32.060Z,52.62
2022-08-12T23:48:02.256Z,52.90
2022-08-12T23:50:33.808Z,52.92
2022-08-12T23:53:05.409Z,53.23
2022-08-12T23:55:40.797Z,53.50
2022-08-12T23:58:21.077Z,53.72
